sensor_id;sensor_type;location;lat;lon;timestamp;P1;durP1;ratioP1;P2;durP2;ratioP2
18834;SDS011;9546;59.262;18.036;2022-08-23T00:01:30;7.13;;;2.53;;
18834;SDS011;9546;59.262;18.036;2022-08-23T00:03:59;6.03;;;1.70;;
18834;SDS011;9546;59.262;18.036;2022-08-23T00:06:26;5.88;;;1.80;;
18834;SDS011;9546;59.262;18.036;2022-08-23T00:08:54;3.97;;;1.58;;
18834;SDS011;9546;59.262;18.036;2022-08-23T00:11:28;7.82;;;2.05;;
18834;SDS011;9546;59.262;18.036;2022-08-23T00:13:55;4.40;;;1.80;;
18834;SDS011;9546;59.262;18.036;2022-08-23T00:16:21;3.38;;;1.77;;
18834;SDS011;9546;59.262;18.036;2022-08-23T00:18:48;7.00;;;2.22;;
18834;SDS011;9546;59.262;18.036;2022-08-23T00:21:16;7.07;;;2.30;;
18834;SDS011;9546;59.262;18.036;2022-08-23T00:23:42;9.23;;;2.10;;
18834;SDS011;9546;59.262;18.036;2022-08-23T00:26:09;7.78;;;2.42;;
18834;SDS011;9546;59.262;18.036;2022-08-23T00:28:36;6.28;;;2.20;;
18834;SDS011;9546;59.262;18.036;2022-08-23T00:31:03;5.68;;;2.13;;
18834;SDS011;9546;59.262;18.036;2022-08-23T00:33:29;4.72;;;1.90;;
18834;SDS011;9546;59.262;18.036;2022-08-23T00:35:56;5.97;;;2.05;;
18834;SDS011;9546;59.262;18.036;2022-08-23T00:38:24;4.65;;;1.60;;
18834;SDS011;9546;59.262;18.036;2022-08-23T00:40:51;5.75;;;1.73;;
18834;SDS011;9546;59.262;18.036;2022-08-23T00:43:19;4.65;;;1.90;;
18834;SDS011;9546;59.262;18.036;2022-08-23T00:46:07;4.88;;;2.08;;
18834;SDS011;9546;59.262;18.036;2022-08-23T00:48:52;4.65;;;1.73;;
18834;SDS011;9546;59.262;18.036;2022-08-23T01:11:50;6.63;;;1.95;;
18834;SDS011;9546;59.262;18.036;2022-08-23T01:14:18;6.32;;;2.55;;
18834;SDS011;9546;59.262;18.036;2022-08-23T01:16:48;5.15;;;2.00;;
18834;SDS011;9546;59.262;18.036;2022-08-23T01:19:17;5.43;;;2.03;;
18834;SDS011;9546;59.262;18.036;2022-08-23T01:21:45;8.10;;;2.45;;
18834;SDS011;9546;59.262;18.036;2022-08-23T01:24:15;5.95;;;1.83;;
18834;SDS011;9546;59.262;18.036;2022-08-23T01:26:42;2.75;;;1.70;;
18834;SDS011;9546;59.262;18.036;2022-08-23T01:29:09;4.45;;;2.10;;
18834;SDS011;9546;59.262;18.036;2022-08-23T01:31:35;5.57;;;1.77;;
18834;SDS011;9546;59.262;18.036;2022-08-23T01:34:03;6.78;;;1.92;;
18834;SDS011;9546;59.262;18.036;2022-08-23T01:36:31;3.47;;;1.70;;
18834;SDS011;9546;59.262;18.036;2022-08-23T01:38:58;5.72;;;1.58;;
18834;SDS011;9546;59.262;18.036;2022-08-23T01:41:26;3.80;;;1.88;;
18834;SDS011;9546;59.262;18.036;2022-08-23T01:43:52;7.28;;;1.75;;
18834;SDS011;9546;59.262;18.036;2022-08-23T01:46:20;3.83;;;1.60;;
18834;SDS011;9546;59.262;18.036;2022-08-23T01:48:47;4.78;;;1.85;;
18834;SDS011;9546;59.262;18.036;2022-08-23T01:51:14;5.07;;;1.90;;
18834;SDS011;9546;59.262;18.036;2022-08-23T01:53:41;5.07;;;1.98;;
18834;SDS011;9546;59.262;18.036;2022-08-23T01:56:08;4.43;;;1.77;;
18834;SDS011;9546;59.262;18.036;2022-08-23T01:58:36;5.22;;;1.88;;
18834;SDS011;9546;59.262;18.036;2022-08-23T02:01:03;4.55;;;1.85;;
18834;SDS011;9546;59.262;18.036;2022-08-23T02:03:29;3.67;;;1.90;;
18834;SDS011;9546;59.262;18.036;2022-08-23T02:08:59;3.13;;;1.83;;
18834;SDS011;9546;59.262;18.036;2022-08-23T02:11:29;3.97;;;1.77;;
18834;SDS011;9546;59.262;18.036;2022-08-23T02:13:58;3.15;;;2.00;;
18834;SDS011;9546;59.262;18.036;2022-08-23T02:16:26;4.65;;;1.85;;
18834;SDS011;9546;59.262;18.036;2022-08-23T02:18:53;3.33;;;2.05;;
18834;SDS011;9546;59.262;18.036;2022-08-23T02:21:20;4.28;;;1.83;;
18834;SDS011;9546;59.262;18.036;2022-08-23T02:23:47;4.68;;;2.00;;
18834;SDS011;9546;59.262;18.036;2022-08-23T02:26:15;4.82;;;1.73;;
18834;SDS011;9546;59.262;18.036;2022-08-23T02:28:42;4.63;;;2.28;;
18834;SDS011;9546;59.262;18.036;2022-08-23T02:31:10;4.45;;;2.00;;
18834;SDS011;9546;59.262;18.036;2022-08-23T02:33:36;4.57;;;2.05;;
18834;SDS011;9546;59.262;18.036;2022-08-23T02:36:03;4.35;;;2.30;;
18834;SDS011;9546;59.262;18.036;2022-08-23T02:38:29;5.70;;;2.40;;
18834;SDS011;9546;59.262;18.036;2022-08-23T02:40:56;4.63;;;2.03;;
18834;SDS011;9546;59.262;18.036;2022-08-23T02:43:22;4.70;;;1.83;;
18834;SDS011;9546;59.262;18.036;2022-08-23T02:45:49;3.85;;;1.83;;
18834;SDS011;9546;59.262;18.036;2022-08-23T02:48:17;6.38;;;2.17;;
18834;SDS011;9546;59.262;18.036;2022-08-23T02:50:43;3.88;;;1.90;;
18834;SDS011;9546;59.262;18.036;2022-08-23T03:12:29;4.47;;;1.95;;
18834;SDS011;9546;59.262;18.036;2022-08-23T03:14:56;6.32;;;1.88;;
18834;SDS011;9546;59.262;18.036;2022-08-23T03:17:22;7.55;;;2.50;;
18834;SDS011;9546;59.262;18.036;2022-08-23T03:19:49;3.88;;;2.08;;
18834;SDS011;9546;59.262;18.036;2022-08-23T03:22:16;4.45;;;1.90;;
18834;SDS011;9546;59.262;18.036;2022-08-23T03:24:43;4.30;;;2.13;;
18834;SDS011;9546;59.262;18.036;2022-08-23T03:27:09;6.60;;;2.13;;
18834;SDS011;9546;59.262;18.036;2022-08-23T03:29:37;4.03;;;2.55;;
18834;SDS011;9546;59.262;18.036;2022-08-23T03:32:04;6.22;;;2.40;;
18834;SDS011;9546;59.262;18.036;2022-08-23T03:34:31;3.83;;;2.30;;
18834;SDS011;9546;59.262;18.036;2022-08-23T03:36:58;4.38;;;1.85;;
18834;SDS011;9546;59.262;18.036;2022-08-23T03:39:25;2.83;;;2.25;;
18834;SDS011;9546;59.262;18.036;2022-08-23T03:41:52;5.18;;;1.92;;
18834;SDS011;9546;59.262;18.036;2022-08-23T03:44:18;6.30;;;2.17;;
18834;SDS011;9546;59.262;18.036;2022-08-23T03:46:46;5.15;;;2.17;;
18834;SDS011;9546;59.262;18.036;2022-08-23T03:49:12;6.32;;;2.20;;
18834;SDS011;9546;59.262;18.036;2022-08-23T03:51:39;4.18;;;2.10;;
18834;SDS011;9546;59.262;18.036;2022-08-23T03:54:05;6.07;;;2.20;;
18834;SDS011;9546;59.262;18.036;2022-08-23T03:56:33;4.47;;;2.42;;
18834;SDS011;9546;59.262;18.036;2022-08-23T03:59:01;8.30;;;2.25;;
18834;SDS011;9546;59.262;18.036;2022-08-23T04:01:28;6.25;;;2.45;;
18834;SDS011;9546;59.262;18.036;2022-08-23T04:03:56;4.95;;;2.33;;
18834;SDS011;9546;59.262;18.036;2022-08-23T04:06:23;7.03;;;2.13;;
18834;SDS011;9546;59.262;18.036;2022-08-23T04:08:50;6.05;;;2.38;;
18834;SDS011;9546;59.262;18.036;2022-08-23T04:11:18;3.50;;;1.90;;
18834;SDS011;9546;59.262;18.036;2022-08-23T04:13:45;3.97;;;2.30;;
18834;SDS011;9546;59.262;18.036;2022-08-23T04:16:12;3.33;;;1.90;;
18834;SDS011;9546;59.262;18.036;2022-08-23T04:18:38;5.38;;;2.22;;
18834;SDS011;9546;59.262;18.036;2022-08-23T04:21:08;6.40;;;2.30;;
18834;SDS011;9546;59.262;18.036;2022-08-23T04:23:35;7.32;;;3.40;;
18834;SDS011;9546;59.262;18.036;2022-08-23T04:26:01;3.60;;;2.25;;
18834;SDS011;9546;59.262;18.036;2022-08-23T04:28:28;7.75;;;2.50;;
18834;SDS011;9546;59.262;18.036;2022-08-23T04:30:55;6.00;;;2.50;;
18834;SDS011;9546;59.262;18.036;2022-08-23T04:33:24;7.35;;;2.92;;
18834;SDS011;9546;59.262;18.036;2022-08-23T04:35:50;7.97;;;2.53;;
18834;SDS011;9546;59.262;18.036;2022-08-23T04:38:18;6.30;;;2.60;;
18834;SDS011;9546;59.262;18.036;2022-08-23T04:40:45;5.97;;;2.78;;
18834;SDS011;9546;59.262;18.036;2022-08-23T04:43:29;7.15;;;3.08;;
18834;SDS011;9546;59.262;18.036;2022-08-23T04:45:56;12.85;;;4.50;;
18834;SDS011;9546;59.262;18.036;2022-08-23T04:48:22;8.55;;;3.85;;
18834;SDS011;9546;59.262;18.036;2022-08-23T04:50:49;9.98;;;4.05;;
18834;SDS011;9546;59.262;18.036;2022-08-23T05:12:05;6.32;;;2.70;;
18834;SDS011;9546;59.262;18.036;2022-08-23T05:14:32;9.32;;;4.05;;
18834;SDS011;9546;59.262;18.036;2022-08-23T05:16:59;12.80;;;3.45;;
18834;SDS011;9546;59.262;18.036;2022-08-23T05:19:26;6.40;;;2.88;;
18834;SDS011;9546;59.262;18.036;2022-08-23T05:21:53;8.80;;;3.75;;
18834;SDS011;9546;59.262;18.036;2022-08-23T05:24:19;9.63;;;3.50;;
18834;SDS011;9546;59.262;18.036;2022-08-23T05:26:46;5.53;;;3.40;;
18834;SDS011;9546;59.262;18.036;2022-08-23T05:29:13;7.18;;;3.22;;
18834;SDS011;9546;59.262;18.036;2022-08-23T05:31:40;14.50;;;3.15;;
18834;SDS011;9546;59.262;18.036;2022-08-23T05:34:07;8.45;;;3.38;;
18834;SDS011;9546;59.262;18.036;2022-08-23T05:36:33;17.10;;;3.58;;
18834;SDS011;9546;59.262;18.036;2022-08-23T05:39:00;10.32;;;3.00;;
18834;SDS011;9546;59.262;18.036;2022-08-23T05:41:26;11.40;;;3.42;;
18834;SDS011;9546;59.262;18.036;2022-08-23T05:43:53;15.20;;;4.22;;
18834;SDS011;9546;59.262;18.036;2022-08-23T05:46:25;11.50;;;3.75;;
18834;SDS011;9546;59.262;18.036;2022-08-23T05:48:51;11.90;;;3.60;;
18834;SDS011;9546;59.262;18.036;2022-08-23T05:51:20;11.98;;;3.85;;
18834;SDS011;9546;59.262;18.036;2022-08-23T05:53:47;5.78;;;3.22;;
18834;SDS011;9546;59.262;18.036;2022-08-23T05:56:15;12.80;;;3.40;;
18834;SDS011;9546;59.262;18.036;2022-08-23T05:58:42;6.45;;;2.90;;
18834;SDS011;9546;59.262;18.036;2022-08-23T06:01:10;8.52;;;3.15;;
18834;SDS011;9546;59.262;18.036;2022-08-23T06:03:38;6.03;;;2.33;;
18834;SDS011;9546;59.262;18.036;2022-08-23T06:06:05;10.43;;;2.75;;
18834;SDS011;9546;59.262;18.036;2022-08-23T06:08:32;8.07;;;2.45;;
18834;SDS011;9546;59.262;18.036;2022-08-23T06:10:59;6.75;;;2.72;;
18834;SDS011;9546;59.262;18.036;2022-08-23T06:13:26;6.85;;;2.30;;
18834;SDS011;9546;59.262;18.036;2022-08-23T06:15:53;8.48;;;2.60;;
18834;SDS011;9546;59.262;18.036;2022-08-23T06:18:19;9.07;;;2.88;;
18834;SDS011;9546;59.262;18.036;2022-08-23T06:20:47;7.93;;;3.00;;
18834;SDS011;9546;59.262;18.036;2022-08-23T06:23:14;9.90;;;2.83;;
18834;SDS011;9546;59.262;18.036;2022-08-23T06:25:40;8.68;;;2.45;;
18834;SDS011;9546;59.262;18.036;2022-08-23T06:28:07;7.82;;;2.53;;
18834;SDS011;9546;59.262;18.036;2022-08-23T06:30:33;10.88;;;2.38;;
18834;SDS011;9546;59.262;18.036;2022-08-23T06:33:00;8.43;;;2.85;;
18834;SDS011;9546;59.262;18.036;2022-08-23T06:35:26;4.82;;;2.03;;
18834;SDS011;9546;59.262;18.036;2022-08-23T06:37:55;4.60;;;2.00;;
18834;SDS011;9546;59.262;18.036;2022-08-23T06:40:21;4.53;;;1.58;;
18834;SDS011;9546;59.262;18.036;2022-08-23T06:42:48;7.65;;;2.47;;
18834;SDS011;9546;59.262;18.036;2022-08-23T06:45:14;6.53;;;2.33;;
18834;SDS011;9546;59.262;18.036;2022-08-23T06:47:41;8.63;;;2.33;;
18834;SDS011;9546;59.262;18.036;2022-08-23T06:50:08;6.57;;;2.15;;
18834;SDS011;9546;59.262;18.036;2022-08-23T07:12:02;4.72;;;2.03;;
18834;SDS011;9546;59.262;18.036;2022-08-23T07:14:30;10.98;;;2.33;;
18834;SDS011;9546;59.262;18.036;2022-08-23T07:16:57;10.60;;;2.17;;
18834;SDS011;9546;59.262;18.036;2022-08-23T07:19:30;6.57;;;2.30;;
18834;SDS011;9546;59.262;18.036;2022-08-23T07:21:59;4.88;;;1.90;;
18834;SDS011;9546;59.262;18.036;2022-08-23T07:24:27;6.00;;;1.70;;
18834;SDS011;9546;59.262;18.036;2022-08-23T07:26:56;4.88;;;1.85;;
18834;SDS011;9546;59.262;18.036;2022-08-23T07:29:24;6.22;;;1.83;;
18834;SDS011;9546;59.262;18.036;2022-08-23T07:31:52;6.43;;;1.77;;
18834;SDS011;9546;59.262;18.036;2022-08-23T07:34:21;6.20;;;1.90;;
18834;SDS011;9546;59.262;18.036;2022-08-23T07:36:49;6.50;;;1.60;;
18834;SDS011;9546;59.262;18.036;2022-08-23T07:39:17;7.32;;;1.88;;
18834;SDS011;9546;59.262;18.036;2022-08-23T07:41:44;6.63;;;1.70;;
18834;SDS011;9546;59.262;18.036;2022-08-23T07:44:12;5.38;;;1.83;;
18834;SDS011;9546;59.262;18.036;2022-08-23T07:46:41;5.90;;;2.05;;
18834;SDS011;9546;59.262;18.036;2022-08-23T07:49:09;6.40;;;1.98;;
18834;SDS011;9546;59.262;18.036;2022-08-23T07:51:38;6.00;;;1.77;;
18834;SDS011;9546;59.262;18.036;2022-08-23T07:54:25;3.83;;;1.52;;
18834;SDS011;9546;59.262;18.036;2022-08-23T07:56:53;4.82;;;2.00;;
18834;SDS011;9546;59.262;18.036;2022-08-23T07:59:40;6.32;;;2.00;;
18834;SDS011;9546;59.262;18.036;2022-08-23T08:02:08;4.55;;;2.20;;
18834;SDS011;9546;59.262;18.036;2022-08-23T08:04:34;6.28;;;1.55;;
18834;SDS011;9546;59.262;18.036;2022-08-23T08:07:01;6.28;;;2.05;;
18834;SDS011;9546;59.262;18.036;2022-08-23T08:09:29;5.38;;;1.65;;
18834;SDS011;9546;59.262;18.036;2022-08-23T08:11:55;7.28;;;1.75;;
18834;SDS011;9546;59.262;18.036;2022-08-23T08:14:22;3.03;;;1.50;;
18834;SDS011;9546;59.262;18.036;2022-08-23T08:16:49;3.75;;;1.65;;
18834;SDS011;9546;59.262;18.036;2022-08-23T08:19:17;5.63;;;1.45;;
18834;SDS011;9546;59.262;18.036;2022-08-23T08:21:44;3.47;;;1.67;;
18834;SDS011;9546;59.262;18.036;2022-08-23T08:24:13;5.25;;;1.60;;
18834;SDS011;9546;59.262;18.036;2022-08-23T08:26:41;4.82;;;1.88;;
18834;SDS011;9546;59.262;18.036;2022-08-23T08:29:09;4.60;;;1.50;;
18834;SDS011;9546;59.262;18.036;2022-08-23T08:31:37;4.45;;;1.73;;
18834;SDS011;9546;59.262;18.036;2022-08-23T08:34:04;4.90;;;1.48;;
18834;SDS011;9546;59.262;18.036;2022-08-23T08:36:34;5.85;;;1.77;;
18834;SDS011;9546;59.262;18.036;2022-08-23T08:39:03;4.32;;;1.65;;
18834;SDS011;9546;59.262;18.036;2022-08-23T08:41:34;9.35;;;2.35;;
18834;SDS011;9546;59.262;18.036;2022-08-23T08:44:12;3.45;;;1.42;;
18834;SDS011;9546;59.262;18.036;2022-08-23T08:46:58;4.45;;;1.73;;
18834;SDS011;9546;59.262;18.036;2022-08-23T08:49:29;3.15;;;1.23;;
18834;SDS011;9546;59.262;18.036;2022-08-23T09:12:32;3.10;;;1.20;;
18834;SDS011;9546;59.262;18.036;2022-08-23T09:15:05;3.15;;;1.40;;
18834;SDS011;9546;59.262;18.036;2022-08-23T09:17:39;3.60;;;1.40;;
18834;SDS011;9546;59.262;18.036;2022-08-23T09:20:08;4.22;;;1.40;;
18834;SDS011;9546;59.262;18.036;2022-08-23T09:22:36;4.10;;;1.25;;
18834;SDS011;9546;59.262;18.036;2022-08-23T09:25:05;3.58;;;1.10;;
18834;SDS011;9546;59.262;18.036;2022-08-23T09:27:34;4.38;;;1.10;;
18834;SDS011;9546;59.262;18.036;2022-08-23T09:30:03;3.92;;;0.98;;
18834;SDS011;9546;59.262;18.036;2022-08-23T09:32:30;2.20;;;1.17;;
18834;SDS011;9546;59.262;18.036;2022-08-23T09:35:05;3.28;;;1.30;;
18834;SDS011;9546;59.262;18.036;2022-08-23T09:37:32;4.70;;;1.83;;
18834;SDS011;9546;59.262;18.036;2022-08-23T09:40:16;2.78;;;1.02;;
18834;SDS011;9546;59.262;18.036;2022-08-23T09:42:44;4.95;;;1.17;;
18834;SDS011;9546;59.262;18.036;2022-08-23T09:45:23;2.65;;;1.02;;
18834;SDS011;9546;59.262;18.036;2022-08-23T09:47:50;3.13;;;0.80;;
18834;SDS011;9546;59.262;18.036;2022-08-23T09:50:22;6.05;;;0.90;;
18834;SDS011;9546;59.262;18.036;2022-08-23T09:52:53;5.30;;;1.15;;
18834;SDS011;9546;59.262;18.036;2022-08-23T09:55:27;3.38;;;1.10;;
18834;SDS011;9546;59.262;18.036;2022-08-23T09:57:57;4.03;;;1.00;;
18834;SDS011;9546;59.262;18.036;2022-08-23T10:00:25;2.00;;;1.08;;
18834;SDS011;9546;59.262;18.036;2022-08-23T10:02:53;2.35;;;1.27;;
18834;SDS011;9546;59.262;18.036;2022-08-23T10:05:27;2.85;;;1.13;;
18834;SDS011;9546;59.262;18.036;2022-08-23T10:07:54;4.35;;;1.17;;
18834;SDS011;9546;59.262;18.036;2022-08-23T10:10:24;4.05;;;1.15;;
18834;SDS011;9546;59.262;18.036;2022-08-23T10:12:52;4.22;;;1.10;;
18834;SDS011;9546;59.262;18.036;2022-08-23T10:15:21;2.67;;;1.15;;
18834;SDS011;9546;59.262;18.036;2022-08-23T10:17:49;1.63;;;1.00;;
18834;SDS011;9546;59.262;18.036;2022-08-23T10:20:21;2.28;;;1.10;;
18834;SDS011;9546;59.262;18.036;2022-08-23T10:22:53;2.08;;;0.90;;
18834;SDS011;9546;59.262;18.036;2022-08-23T10:25:21;3.03;;;1.40;;
18834;SDS011;9546;59.262;18.036;2022-08-23T10:27:53;3.58;;;1.10;;
18834;SDS011;9546;59.262;18.036;2022-08-23T10:30:43;4.28;;;1.42;;
18834;SDS011;9546;59.262;18.036;2022-08-23T10:33:15;2.25;;;1.15;;
18834;SDS011;9546;59.262;18.036;2022-08-23T10:35:44;3.45;;;1.27;;
18834;SDS011;9546;59.262;18.036;2022-08-23T10:38:20;1.92;;;1.25;;
18834;SDS011;9546;59.262;18.036;2022-08-23T10:40:51;3.70;;;1.15;;
18834;SDS011;9546;59.262;18.036;2022-08-23T10:43:22;2.28;;;0.88;;
18834;SDS011;9546;59.262;18.036;2022-08-23T10:45:56;4.65;;;1.58;;
18834;SDS011;9546;59.262;18.036;2022-08-23T10:48:25;2.30;;;1.25;;
18834;SDS011;9546;59.262;18.036;2022-08-23T10:50:54;3.17;;;1.05;;
18834;SDS011;9546;59.262;18.036;2022-08-23T11:12:24;1.98;;;0.95;;
18834;SDS011;9546;59.262;18.036;2022-08-23T11:15:10;1.75;;;1.08;;
18834;SDS011;9546;59.262;18.036;2022-08-23T11:17:57;5.35;;;1.25;;
18834;SDS011;9546;59.262;18.036;2022-08-23T11:23:34;4.28;;;1.08;;
18834;SDS011;9546;59.262;18.036;2022-08-23T11:29:32;1.02;;;0.70;;
18834;SDS011;9546;59.262;18.036;2022-08-23T11:32:02;2.72;;;1.15;;
18834;SDS011;9546;59.262;18.036;2022-08-23T11:34:47;2.80;;;1.00;;
18834;SDS011;9546;59.262;18.036;2022-08-23T11:37:28;2.92;;;1.35;;
18834;SDS011;9546;59.262;18.036;2022-08-23T11:43:00;2.00;;;0.90;;
18834;SDS011;9546;59.262;18.036;2022-08-23T11:45:38;3.08;;;1.05;;
18834;SDS011;9546;59.262;18.036;2022-08-23T11:48:11;3.47;;;1.00;;
18834;SDS011;9546;59.262;18.036;2022-08-23T11:50:47;3.05;;;1.15;;
18834;SDS011;9546;59.262;18.036;2022-08-23T11:53:34;4.85;;;1.00;;
18834;SDS011;9546;59.262;18.036;2022-08-23T11:59:21;1.58;;;0.95;;
18834;SDS011;9546;59.262;18.036;2022-08-23T12:02:01;3.50;;;1.08;;
18834;SDS011;9546;59.262;18.036;2022-08-23T12:05:01;2.50;;;0.85;;
18834;SDS011;9546;59.262;18.036;2022-08-23T12:07:42;1.77;;;0.80;;
18834;SDS011;9546;59.262;18.036;2022-08-23T12:10:13;2.03;;;0.98;;
18834;SDS011;9546;59.262;18.036;2022-08-23T12:12:42;2.65;;;1.42;;
18834;SDS011;9546;59.262;18.036;2022-08-23T12:15:09;2.47;;;1.02;;
18834;SDS011;9546;59.262;18.036;2022-08-23T12:17:55;2.05;;;0.90;;
18834;SDS011;9546;59.262;18.036;2022-08-23T12:20:36;1.70;;;0.90;;
18834;SDS011;9546;59.262;18.036;2022-08-23T12:23:06;3.63;;;0.98;;
18834;SDS011;9546;59.262;18.036;2022-08-23T12:25:39;4.47;;;1.00;;
18834;SDS011;9546;59.262;18.036;2022-08-23T12:28:11;5.05;;;1.17;;
18834;SDS011;9546;59.262;18.036;2022-08-23T12:30:55;6.00;;;1.23;;
18834;SDS011;9546;59.262;18.036;2022-08-23T12:33:30;2.38;;;0.90;;
18834;SDS011;9546;59.262;18.036;2022-08-23T12:36:07;5.38;;;1.00;;
18834;SDS011;9546;59.262;18.036;2022-08-23T12:38:44;2.13;;;0.90;;
18834;SDS011;9546;59.262;18.036;2022-08-23T12:41:20;3.22;;;1.08;;
18834;SDS011;9546;59.262;18.036;2022-08-23T12:43:52;1.58;;;0.90;;
18834;SDS011;9546;59.262;18.036;2022-08-23T12:46:29;3.80;;;1.02;;
18834;SDS011;9546;59.262;18.036;2022-08-23T12:48:59;3.25;;;0.95;;
18834;SDS011;9546;59.262;18.036;2022-08-23T12:51:26;1.70;;;0.75;;
18834;SDS011;9546;59.262;18.036;2022-08-23T13:12:36;3.63;;;1.20;;
18834;SDS011;9546;59.262;18.036;2022-08-23T13:15:04;1.10;;;0.70;;
18834;SDS011;9546;59.262;18.036;2022-08-23T13:17:33;4.10;;;1.48;;
18834;SDS011;9546;59.262;18.036;2022-08-23T13:20:16;4.05;;;1.20;;
18834;SDS011;9546;59.262;18.036;2022-08-23T13:22:59;2.28;;;1.10;;
18834;SDS011;9546;59.262;18.036;2022-08-23T13:25:29;2.10;;;1.05;;
18834;SDS011;9546;59.262;18.036;2022-08-23T13:28:00;4.05;;;1.00;;
18834;SDS011;9546;59.262;18.036;2022-08-23T13:30:29;4.30;;;1.23;;
18834;SDS011;9546;59.262;18.036;2022-08-23T13:33:16;6.38;;;1.30;;
18834;SDS011;9546;59.262;18.036;2022-08-23T13:35:45;3.25;;;0.93;;
18834;SDS011;9546;59.262;18.036;2022-08-23T13:38:20;2.97;;;1.23;;
18834;SDS011;9546;59.262;18.036;2022-08-23T13:40:52;2.00;;;1.02;;
18834;SDS011;9546;59.262;18.036;2022-08-23T13:43:27;2.35;;;0.95;;
18834;SDS011;9546;59.262;18.036;2022-08-23T13:45:59;3.00;;;1.30;;
18834;SDS011;9546;59.262;18.036;2022-08-23T13:48:34;2.05;;;1.05;;
18834;SDS011;9546;59.262;18.036;2022-08-23T13:51:15;1.10;;;1.00;;
18834;SDS011;9546;59.262;18.036;2022-08-23T13:53:44;4.18;;;1.40;;
18834;SDS011;9546;59.262;18.036;2022-08-23T13:56:11;2.40;;;1.30;;
18834;SDS011;9546;59.262;18.036;2022-08-23T13:58:41;2.03;;;1.20;;
18834;SDS011;9546;59.262;18.036;2022-08-23T14:01:10;3.15;;;1.35;;
18834;SDS011;9546;59.262;18.036;2022-08-23T14:03:44;2.40;;;1.15;;
18834;SDS011;9546;59.262;18.036;2022-08-23T14:06:11;3.33;;;0.88;;
18834;SDS011;9546;59.262;18.036;2022-08-23T14:08:38;1.40;;;1.05;;
18834;SDS011;9546;59.262;18.036;2022-08-23T14:11:05;4.03;;;1.13;;
18834;SDS011;9546;59.262;18.036;2022-08-23T14:13:32;2.83;;;1.00;;
18834;SDS011;9546;59.262;18.036;2022-08-23T14:16:03;2.97;;;1.13;;
18834;SDS011;9546;59.262;18.036;2022-08-23T14:18:32;3.50;;;0.88;;
18834;SDS011;9546;59.262;18.036;2022-08-23T14:20:59;2.58;;;1.15;;
18834;SDS011;9546;59.262;18.036;2022-08-23T14:23:28;2.55;;;1.00;;
18834;SDS011;9546;59.262;18.036;2022-08-23T14:25:55;1.90;;;0.90;;
18834;SDS011;9546;59.262;18.036;2022-08-23T14:28:23;2.75;;;1.17;;
18834;SDS011;9546;59.262;18.036;2022-08-23T14:30:53;2.17;;;0.93;;
18834;SDS011;9546;59.262;18.036;2022-08-23T14:33:21;4.18;;;1.10;;
18834;SDS011;9546;59.262;18.036;2022-08-23T14:35:48;2.17;;;1.02;;
18834;SDS011;9546;59.262;18.036;2022-08-23T14:38:16;2.72;;;0.88;;
18834;SDS011;9546;59.262;18.036;2022-08-23T14:40:46;2.67;;;1.25;;
18834;SDS011;9546;59.262;18.036;2022-08-23T14:43:17;2.35;;;1.10;;
18834;SDS011;9546;59.262;18.036;2022-08-23T14:45:44;2.03;;;1.20;;
18834;SDS011;9546;59.262;18.036;2022-08-23T14:48:11;2.50;;;1.25;;
18834;SDS011;9546;59.262;18.036;2022-08-23T14:50:40;1.77;;;0.80;;
18834;SDS011;9546;59.262;18.036;2022-08-23T14:53:07;1.77;;;0.80;;
18834;SDS011;9546;59.262;18.036;2022-08-23T15:12:48;2.78;;;1.00;;
18834;SDS011;9546;59.262;18.036;2022-08-23T15:15:16;3.88;;;1.10;;
18834;SDS011;9546;59.262;18.036;2022-08-23T15:17:46;1.92;;;1.05;;
18834;SDS011;9546;59.262;18.036;2022-08-23T15:20:16;2.03;;;1.20;;
18834;SDS011;9546;59.262;18.036;2022-08-23T15:22:43;2.72;;;1.15;;
18834;SDS011;9546;59.262;18.036;2022-08-23T15:25:10;2.45;;;1.35;;
18834;SDS011;9546;59.262;18.036;2022-08-23T15:27:37;3.45;;;1.50;;
18834;SDS011;9546;59.262;18.036;2022-08-23T15:30:06;4.53;;;1.65;;
18834;SDS011;9546;59.262;18.036;2022-08-23T15:32:34;2.45;;;1.23;;
18834;SDS011;9546;59.262;18.036;2022-08-23T15:35:00;3.22;;;1.38;;
18834;SDS011;9546;59.262;18.036;2022-08-23T15:37:27;3.72;;;1.27;;
18834;SDS011;9546;59.262;18.036;2022-08-23T15:39:54;2.65;;;1.50;;
18834;SDS011;9546;59.262;18.036;2022-08-23T15:42:21;3.97;;;1.67;;
18834;SDS011;9546;59.262;18.036;2022-08-23T15:44:48;1.75;;;1.17;;
18834;SDS011;9546;59.262;18.036;2022-08-23T15:47:19;3.47;;;1.35;;
18834;SDS011;9546;59.262;18.036;2022-08-23T15:49:48;3.67;;;1.33;;
18834;SDS011;9546;59.262;18.036;2022-08-23T15:52:15;3.65;;;1.50;;
18834;SDS011;9546;59.262;18.036;2022-08-23T15:54:42;2.63;;;1.40;;
18834;SDS011;9546;59.262;18.036;2022-08-23T15:57:12;3.05;;;1.48;;
18834;SDS011;9546;59.262;18.036;2022-08-23T15:59:40;3.13;;;1.30;;
18834;SDS011;9546;59.262;18.036;2022-08-23T16:02:07;3.97;;;1.20;;
18834;SDS011;9546;59.262;18.036;2022-08-23T16:04:37;3.53;;;1.00;;
18834;SDS011;9546;59.262;18.036;2022-08-23T16:07:04;3.08;;;1.58;;
18834;SDS011;9546;59.262;18.036;2022-08-23T16:09:32;4.97;;;2.97;;
18834;SDS011;9546;59.262;18.036;2022-08-23T16:12:00;1.73;;;1.38;;
18834;SDS011;9546;59.262;18.036;2022-08-23T16:14:29;4.38;;;1.45;;
18834;SDS011;9546;59.262;18.036;2022-08-23T16:16:56;3.83;;;1.10;;
18834;SDS011;9546;59.262;18.036;2022-08-23T16:19:23;4.13;;;1.45;;
18834;SDS011;9546;59.262;18.036;2022-08-23T16:21:52;2.30;;;1.45;;
18834;SDS011;9546;59.262;18.036;2022-08-23T16:24:19;3.30;;;1.50;;
18834;SDS011;9546;59.262;18.036;2022-08-23T16:26:47;4.95;;;1.70;;
18834;SDS011;9546;59.262;18.036;2022-08-23T16:29:15;4.65;;;2.00;;
18834;SDS011;9546;59.262;18.036;2022-08-23T16:31:45;4.65;;;1.67;;
18834;SDS011;9546;59.262;18.036;2022-08-23T16:34:13;4.72;;;1.58;;
18834;SDS011;9546;59.262;18.036;2022-08-23T16:36:42;3.88;;;1.70;;
18834;SDS011;9546;59.262;18.036;2022-08-23T16:39:12;3.53;;;1.73;;
18834;SDS011;9546;59.262;18.036;2022-08-23T16:41:40;3.17;;;1.65;;
18834;SDS011;9546;59.262;18.036;2022-08-23T16:44:07;4.07;;;1.42;;
18834;SDS011;9546;59.262;18.036;2022-08-23T16:46:34;3.85;;;1.70;;
18834;SDS011;9546;59.262;18.036;2022-08-23T16:49:03;3.00;;;1.52;;
18834;SDS011;9546;59.262;18.036;2022-08-23T16:51:30;2.90;;;1.50;;
18834;SDS011;9546;59.262;18.036;2022-08-23T17:12:15;4.40;;;1.80;;
18834;SDS011;9546;59.262;18.036;2022-08-23T17:14:42;2.45;;;1.67;;
18834;SDS011;9546;59.262;18.036;2022-08-23T17:17:09;3.92;;;2.03;;
18834;SDS011;9546;59.262;18.036;2022-08-23T17:19:36;2.67;;;1.63;;
18834;SDS011;9546;59.262;18.036;2022-08-23T17:22:03;3.50;;;1.70;;
18834;SDS011;9546;59.262;18.036;2022-08-23T17:24:30;6.07;;;1.83;;
18834;SDS011;9546;59.262;18.036;2022-08-23T17:26:56;3.45;;;1.90;;
18834;SDS011;9546;59.262;18.036;2022-08-23T17:29:24;5.00;;;1.95;;
18834;SDS011;9546;59.262;18.036;2022-08-23T17:31:51;3.40;;;1.77;;
18834;SDS011;9546;59.262;18.036;2022-08-23T17:34:18;5.18;;;2.38;;
18834;SDS011;9546;59.262;18.036;2022-08-23T17:36:45;3.45;;;2.05;;
18834;SDS011;9546;59.262;18.036;2022-08-23T17:39:13;3.70;;;2.10;;
18834;SDS011;9546;59.262;18.036;2022-08-23T17:41:40;4.70;;;2.17;;
18834;SDS011;9546;59.262;18.036;2022-08-23T17:44:06;2.78;;;1.83;;
18834;SDS011;9546;59.262;18.036;2022-08-23T17:46:35;3.17;;;1.65;;
18834;SDS011;9546;59.262;18.036;2022-08-23T17:49:02;6.03;;;2.55;;
18834;SDS011;9546;59.262;18.036;2022-08-23T17:51:29;2.33;;;2.13;;
18834;SDS011;9546;59.262;18.036;2022-08-23T17:53:56;6.22;;;2.38;;
18834;SDS011;9546;59.262;18.036;2022-08-23T17:56:22;3.83;;;2.10;;
18834;SDS011;9546;59.262;18.036;2022-08-23T17:58:49;3.13;;;2.13;;
18834;SDS011;9546;59.262;18.036;2022-08-23T18:01:15;3.05;;;1.92;;
18834;SDS011;9546;59.262;18.036;2022-08-23T18:03:43;2.88;;;1.98;;
18834;SDS011;9546;59.262;18.036;2022-08-23T18:06:10;5.82;;;2.30;;
18834;SDS011;9546;59.262;18.036;2022-08-23T18:08:36;8.00;;;2.00;;